sensor_id;sensor_type;location;lat;lon;timestamp;P1;durP1;ratioP1;P2;durP2;ratioP2
52274;SDS011;38228;50.940;4.024;2024-03-02T00:00:18;2.45;;;0.50;;
52274;SDS011;38228;50.940;4.024;2024-03-02T00:02:46;1.35;;;0.50;;
52274;SDS011;38228;50.940;4.024;2024-03-02T00:05:15;2.13;;;0.60;;
52274;SDS011;38228;50.940;4.024;2024-03-02T00:07:54;3.47;;;0.57;;
52274;SDS011;38228;50.940;4.024;2024-03-02T00:10:22;1.58;;;0.38;;
52274;SDS011;38228;50.940;4.024;2024-03-02T00:12:53;1.15;;;0.57;;
52274;SDS011;38228;50.940;4.024;2024-03-02T00:18:12;2.83;;;0.60;;
52274;SDS011;38228;50.940;4.024;2024-03-02T00:20:43;2.08;;;0.40;;
52274;SDS011;38228;50.940;4.024;2024-03-02T00:23:10;2.10;;;0.43;;
52274;SDS011;38228;50.940;4.024;2024-03-02T00:25:38;2.33;;;0.40;;
52274;SDS011;38228;50.940;4.024;2024-03-02T00:28:17;2.53;;;0.40;;
52274;SDS011;38228;50.940;4.024;2024-03-02T00:30:51;1.42;;;0.50;;
52274;SDS011;38228;50.940;4.024;2024-03-02T00:33:22;1.88;;;0.52;;
52274;SDS011;38228;50.940;4.024;2024-03-02T00:35:48;1.27;;;0.43;;
52274;SDS011;38228;50.940;4.024;2024-03-02T00:38:17;1.52;;;0.50;;
52274;SDS011;38228;50.940;4.024;2024-03-02T00:40:43;2.30;;;0.40;;
52274;SDS011;38228;50.940;4.024;2024-03-02T00:43:28;3.95;;;0.60;;
52274;SDS011;38228;50.940;4.024;2024-03-02T00:46:15;1.00;;;0.30;;
52274;SDS011;38228;50.940;4.024;2024-03-02T00:51:17;1.55;;;0.38;;
52274;SDS011;38228;50.940;4.024;2024-03-02T00:53:42;2.50;;;0.45;;
52274;SDS011;38228;50.940;4.024;2024-03-02T00:56:11;1.58;;;0.40;;
52274;SDS011;38228;50.940;4.024;2024-03-02T00:58:37;1.30;;;0.60;;
52274;SDS011;38228;50.940;4.024;2024-03-02T01:01:03;1.05;;;0.40;;
52274;SDS011;38228;50.940;4.024;2024-03-02T01:03:29;0.95;;;0.40;;
52274;SDS011;38228;50.940;4.024;2024-03-02T01:05:56;1.95;;;0.40;;
52274;SDS011;38228;50.940;4.024;2024-03-02T01:08:23;1.55;;;0.40;;
52274;SDS011;38228;50.940;4.024;2024-03-02T01:10:49;0.82;;;0.40;;
52274;SDS011;38228;50.940;4.024;2024-03-02T01:13:15;3.03;;;0.50;;
52274;SDS011;38228;50.940;4.024;2024-03-02T01:15:41;1.33;;;0.50;;
52274;SDS011;38228;50.940;4.024;2024-03-02T01:18:06;1.85;;;0.30;;
52274;SDS011;38228;50.940;4.024;2024-03-02T01:20:33;1.75;;;0.40;;
52274;SDS011;38228;50.940;4.024;2024-03-02T01:22:58;1.00;;;0.55;;
52274;SDS011;38228;50.940;4.024;2024-03-02T01:25:24;1.90;;;0.52;;
52274;SDS011;38228;50.940;4.024;2024-03-02T01:27:50;0.68;;;0.40;;
52274;SDS011;38228;50.940;4.024;2024-03-02T01:30:16;1.05;;;0.52;;
52274;SDS011;38228;50.940;4.024;2024-03-02T01:32:42;0.88;;;0.52;;
52274;SDS011;38228;50.940;4.024;2024-03-02T01:35:08;1.55;;;0.40;;
52274;SDS011;38228;50.940;4.024;2024-03-02T01:37:34;3.95;;;0.60;;
52274;SDS011;38228;50.940;4.024;2024-03-02T01:40:00;1.05;;;0.50;;
52274;SDS011;38228;50.940;4.024;2024-03-02T01:42:26;1.05;;;0.50;;
52274;SDS011;38228;50.940;4.024;2024-03-02T01:44:51;3.80;;;0.70;;
52274;SDS011;38228;50.940;4.024;2024-03-02T01:47:17;2.53;;;0.77;;
52274;SDS011;38228;50.940;4.024;2024-03-02T01:49:43;2.55;;;0.70;;
52274;SDS011;38228;50.940;4.024;2024-03-02T01:52:08;0.98;;;0.50;;
52274;SDS011;38228;50.940;4.024;2024-03-02T01:54:34;2.00;;;0.60;;
52274;SDS011;38228;50.940;4.024;2024-03-02T01:57:00;2.80;;;0.70;;
52274;SDS011;38228;50.940;4.024;2024-03-02T01:59:26;3.03;;;0.52;;
52274;SDS011;38228;50.940;4.024;2024-03-02T02:01:52;3.10;;;0.98;;
52274;SDS011;38228;50.940;4.024;2024-03-02T02:04:18;2.92;;;0.68;;
52274;SDS011;38228;50.940;4.024;2024-03-02T02:06:46;3.97;;;0.70;;
52274;SDS011;38228;50.940;4.024;2024-03-02T02:09:12;1.88;;;0.80;;
52274;SDS011;38228;50.940;4.024;2024-03-02T02:11:38;3.00;;;1.00;;
52274;SDS011;38228;50.940;4.024;2024-03-02T02:14:04;2.70;;;0.80;;
52274;SDS011;38228;50.940;4.024;2024-03-02T02:16:31;4.10;;;1.00;;
52274;SDS011;38228;50.940;4.024;2024-03-02T02:18:56;0.88;;;0.57;;
52274;SDS011;38228;50.940;4.024;2024-03-02T02:21:22;2.03;;;0.90;;
52274;SDS011;38228;50.940;4.024;2024-03-02T02:23:48;2.90;;;0.75;;
52274;SDS011;38228;50.940;4.024;2024-03-02T02:26:15;5.20;;;0.90;;
52274;SDS011;38228;50.940;4.024;2024-03-02T02:28:41;1.40;;;0.77;;
52274;SDS011;38228;50.940;4.024;2024-03-02T02:31:14;2.83;;;0.93;;
52274;SDS011;38228;50.940;4.024;2024-03-02T02:33:41;1.17;;;0.63;;
52274;SDS011;38228;50.940;4.024;2024-03-02T02:36:07;1.55;;;0.60;;
52274;SDS011;38228;50.940;4.024;2024-03-02T02:38:36;4.28;;;0.90;;
52274;SDS011;38228;50.940;4.024;2024-03-02T02:41:05;2.58;;;0.73;;
52274;SDS011;38228;50.940;4.024;2024-03-02T02:43:31;2.67;;;0.70;;
52274;SDS011;38228;50.940;4.024;2024-03-02T02:45:57;6.50;;;0.90;;
52274;SDS011;38228;50.940;4.024;2024-03-02T02:48:22;4.35;;;0.80;;
52274;SDS011;38228;50.940;4.024;2024-03-02T02:50:48;1.65;;;0.63;;
52274;SDS011;38228;50.940;4.024;2024-03-02T02:53:14;1.80;;;0.70;;
52274;SDS011;38228;50.940;4.024;2024-03-02T02:55:39;5.07;;;0.60;;
52274;SDS011;38228;50.940;4.024;2024-03-02T02:58:09;1.67;;;0.60;;
52274;SDS011;38228;50.940;4.024;2024-03-02T03:00:35;4.28;;;0.85;;
52274;SDS011;38228;50.940;4.024;2024-03-02T03:03:01;4.45;;;0.75;;
52274;SDS011;38228;50.940;4.024;2024-03-02T03:05:27;8.32;;;1.38;;
52274;SDS011;38228;50.940;4.024;2024-03-02T03:07:53;2.60;;;0.50;;
52274;SDS011;38228;50.940;4.024;2024-03-02T03:10:19;1.73;;;0.60;;
52274;SDS011;38228;50.940;4.024;2024-03-02T03:12:47;3.90;;;1.02;;
52274;SDS011;38228;50.940;4.024;2024-03-02T03:15:13;4.75;;;0.70;;
52274;SDS011;38228;50.940;4.024;2024-03-02T03:17:39;2.65;;;1.40;;
52274;SDS011;38228;50.940;4.024;2024-03-02T03:20:05;5.78;;;0.55;;
52274;SDS011;38228;50.940;4.024;2024-03-02T03:22:34;6.15;;;0.77;;
52274;SDS011;38228;50.940;4.024;2024-03-02T03:25:00;5.70;;;0.60;;
52274;SDS011;38228;50.940;4.024;2024-03-02T03:27:26;2.50;;;0.60;;
52274;SDS011;38228;50.940;4.024;2024-03-02T03:29:52;2.50;;;0.80;;
52274;SDS011;38228;50.940;4.024;2024-03-02T03:32:19;3.70;;;0.57;;
52274;SDS011;38228;50.940;4.024;2024-03-02T03:34:45;2.25;;;0.80;;
52274;SDS011;38228;50.940;4.024;2024-03-02T03:37:10;3.03;;;0.60;;
52274;SDS011;38228;50.940;4.024;2024-03-02T03:39:36;3.17;;;0.60;;
52274;SDS011;38228;50.940;4.024;2024-03-02T03:42:02;2.88;;;0.80;;
52274;SDS011;38228;50.940;4.024;2024-03-02T03:44:28;2.15;;;0.70;;
52274;SDS011;38228;50.940;4.024;2024-03-02T03:46:54;4.60;;;0.80;;
52274;SDS011;38228;50.940;4.024;2024-03-02T03:49:19;4.43;;;1.00;;
52274;SDS011;38228;50.940;4.024;2024-03-02T03:51:45;5.05;;;0.88;;
52274;SDS011;38228;50.940;4.024;2024-03-02T03:54:11;3.15;;;1.00;;
52274;SDS011;38228;50.940;4.024;2024-03-02T03:56:37;6.88;;;1.27;;
52274;SDS011;38228;50.940;4.024;2024-03-02T03:59:03;4.22;;;0.90;;
52274;SDS011;38228;50.940;4.024;2024-03-02T04:01:29;4.55;;;1.08;;
52274;SDS011;38228;50.940;4.024;2024-03-02T04:03:56;2.95;;;0.93;;
52274;SDS011;38228;50.940;4.024;2024-03-02T04:06:23;10.82;;;0.90;;
52274;SDS011;38228;50.940;4.024;2024-03-02T04:08:48;3.42;;;0.90;;
52274;SDS011;38228;50.940;4.024;2024-03-02T04:11:14;4.50;;;0.80;;
52274;SDS011;38228;50.940;4.024;2024-03-02T04:13:40;6.03;;;1.00;;
52274;SDS011;38228;50.940;4.024;2024-03-02T04:16:05;2.72;;;0.77;;
52274;SDS011;38228;50.940;4.024;2024-03-02T04:18:31;4.68;;;0.90;;
52274;SDS011;38228;50.940;4.024;2024-03-02T04:20:57;3.60;;;1.13;;
52274;SDS011;38228;50.940;4.024;2024-03-02T04:23:26;6.55;;;1.00;;
52274;SDS011;38228;50.940;4.024;2024-03-02T04:25:52;1.80;;;0.90;;
52274;SDS011;38228;50.940;4.024;2024-03-02T04:28:18;5.82;;;0.90;;
52274;SDS011;38228;50.940;4.024;2024-03-02T04:30:43;4.75;;;1.15;;
52274;SDS011;38228;50.940;4.024;2024-03-02T04:33:09;9.32;;;1.13;;
52274;SDS011;38228;50.940;4.024;2024-03-02T04:35:38;4.20;;;0.90;;
52274;SDS011;38228;50.940;4.024;2024-03-02T04:38:04;4.57;;;0.82;;
52274;SDS011;38228;50.940;4.024;2024-03-02T04:40:30;3.63;;;0.80;;
52274;SDS011;38228;50.940;4.024;2024-03-02T04:42:57;3.70;;;0.93;;
52274;SDS011;38228;50.940;4.024;2024-03-02T04:45:24;6.43;;;1.17;;
52274;SDS011;38228;50.940;4.024;2024-03-02T04:47:49;7.88;;;1.15;;
52274;SDS011;38228;50.940;4.024;2024-03-02T04:50:15;3.25;;;0.80;;
52274;SDS011;38228;50.940;4.024;2024-03-02T04:52:41;5.93;;;1.48;;
52274;SDS011;38228;50.940;4.024;2024-03-02T04:55:07;3.70;;;1.00;;
52274;SDS011;38228;50.940;4.024;2024-03-02T04:57:50;9.15;;;1.33;;
52274;SDS011;38228;50.940;4.024;2024-03-02T05:00:16;4.05;;;1.05;;
52274;SDS011;38228;50.940;4.024;2024-03-02T05:02:42;6.22;;;1.27;;
52274;SDS011;38228;50.940;4.024;2024-03-02T05:05:08;5.10;;;1.05;;
52274;SDS011;38228;50.940;4.024;2024-03-02T05:07:33;5.38;;;1.15;;
52274;SDS011;38228;50.940;4.024;2024-03-02T05:09:59;4.13;;;0.93;;
52274;SDS011;38228;50.940;4.024;2024-03-02T05:12:25;5.32;;;1.17;;
52274;SDS011;38228;50.940;4.024;2024-03-02T05:15:09;5.63;;;1.45;;
52274;SDS011;38228;50.940;4.024;2024-03-02T05:17:35;3.58;;;0.77;;
52274;SDS011;38228;50.940;4.024;2024-03-02T05:20:05;5.35;;;1.23;;
52274;SDS011;38228;50.940;4.024;2024-03-02T05:22:35;6.63;;;1.23;;
52274;SDS011;38228;50.940;4.024;2024-03-02T05:25:02;4.85;;;1.10;;
52274;SDS011;38228;50.940;4.024;2024-03-02T05:27:28;5.18;;;1.08;;
52274;SDS011;38228;50.940;4.024;2024-03-02T05:29:54;2.25;;;0.90;;
52274;SDS011;38228;50.940;4.024;2024-03-02T05:32:20;5.95;;;1.10;;
52274;SDS011;38228;50.940;4.024;2024-03-02T05:34:45;2.03;;;0.85;;
52274;SDS011;38228;50.940;4.024;2024-03-02T05:37:11;9.18;;;1.52;;
52274;SDS011;38228;50.940;4.024;2024-03-02T05:39:37;3.70;;;0.93;;
52274;SDS011;38228;50.940;4.024;2024-03-02T05:42:03;10.73;;;1.42;;
52274;SDS011;38228;50.940;4.024;2024-03-02T05:44:28;3.83;;;1.15;;
52274;SDS011;38228;50.940;4.024;2024-03-02T05:46:54;4.32;;;1.30;;
52274;SDS011;38228;50.940;4.024;2024-03-02T05:49:20;4.55;;;1.10;;
52274;SDS011;38228;50.940;4.024;2024-03-02T05:51:46;4.22;;;1.30;;
52274;SDS011;38228;50.940;4.024;2024-03-02T05:54:12;4.78;;;1.10;;
52274;SDS011;38228;50.940;4.024;2024-03-02T05:56:38;5.50;;;1.30;;
52274;SDS011;38228;50.940;4.024;2024-03-02T05:59:03;5.72;;;1.27;;
52274;SDS011;38228;50.940;4.024;2024-03-02T06:01:46;4.25;;;0.88;;
52274;SDS011;38228;50.940;4.024;2024-03-02T06:04:13;6.65;;;1.08;;
52274;SDS011;38228;50.940;4.024;2024-03-02T06:06:39;7.63;;;1.02;;
52274;SDS011;38228;50.940;4.024;2024-03-02T06:09:10;6.97;;;0.80;;
52274;SDS011;38228;50.940;4.024;2024-03-02T06:11:39;4.75;;;1.05;;
52274;SDS011;38228;50.940;4.024;2024-03-02T06:14:06;4.55;;;1.05;;
52274;SDS011;38228;50.940;4.024;2024-03-02T06:16:35;9.95;;;1.17;;
52274;SDS011;38228;50.940;4.024;2024-03-02T06:19:01;5.88;;;1.20;;
52274;SDS011;38228;50.940;4.024;2024-03-02T06:21:27;3.00;;;0.70;;
52274;SDS011;38228;50.940;4.024;2024-03-02T06:23:53;6.63;;;1.20;;
52274;SDS011;38228;50.940;4.024;2024-03-02T06:26:19;4.95;;;1.25;;
52274;SDS011;38228;50.940;4.024;2024-03-02T06:28:45;10.32;;;1.10;;
52274;SDS011;38228;50.940;4.024;2024-03-02T06:31:11;10.70;;;1.35;;
52274;SDS011;38228;50.940;4.024;2024-03-02T06:33:37;6.10;;;1.20;;
52274;SDS011;38228;50.940;4.024;2024-03-02T06:36:03;8.85;;;1.55;;
52274;SDS011;38228;50.940;4.024;2024-03-02T06:38:29;7.40;;;1.05;;
52274;SDS011;38228;50.940;4.024;2024-03-02T06:40:57;7.68;;;1.40;;
52274;SDS011;38228;50.940;4.024;2024-03-02T06:43:23;7.93;;;1.10;;
52274;SDS011;38228;50.940;4.024;2024-03-02T06:45:51;6.22;;;1.08;;
52274;SDS011;38228;50.940;4.024;2024-03-02T06:48:18;4.97;;;1.08;;
52274;SDS011;38228;50.940;4.024;2024-03-02T06:50:48;5.47;;;1.33;;
52274;SDS011;38228;50.940;4.024;2024-03-02T06:53:14;8.45;;;1.42;;
52274;SDS011;38228;50.940;4.024;2024-03-02T06:55:43;8.00;;;1.13;;
52274;SDS011;38228;50.940;4.024;2024-03-02T06:58:10;5.65;;;1.05;;
52274;SDS011;38228;50.940;4.024;2024-03-02T07:00:40;6.55;;;1.40;;
52274;SDS011;38228;50.940;4.024;2024-03-02T07:03:06;7.82;;;1.23;;
52274;SDS011;38228;50.940;4.024;2024-03-02T07:05:32;5.32;;;1.30;;
52274;SDS011;38228;50.940;4.024;2024-03-02T07:07:57;7.22;;;1.25;;
52274;SDS011;38228;50.940;4.024;2024-03-02T07:10:23;6.60;;;1.20;;
52274;SDS011;38228;50.940;4.024;2024-03-02T07:12:49;6.85;;;1.33;;
52274;SDS011;38228;50.940;4.024;2024-03-02T07:15:15;6.03;;;1.42;;
52274;SDS011;38228;50.940;4.024;2024-03-02T07:17:52;9.38;;;1.23;;
52274;SDS011;38228;50.940;4.024;2024-03-02T07:20:18;14.15;;;1.25;;
52274;SDS011;38228;50.940;4.024;2024-03-02T07:22:43;8.93;;;0.95;;
52274;SDS011;38228;50.940;4.024;2024-03-02T07:25:09;5.93;;;1.23;;
52274;SDS011;38228;50.940;4.024;2024-03-02T07:27:35;8.13;;;1.38;;
52274;SDS011;38228;50.940;4.024;2024-03-02T07:30:02;6.72;;;0.95;;
52274;SDS011;38228;50.940;4.024;2024-03-02T07:32:28;4.05;;;0.80;;
52274;SDS011;38228;50.940;4.024;2024-03-02T07:34:54;5.20;;;1.17;;
52274;SDS011;38228;50.940;4.024;2024-03-02T07:37:20;5.20;;;0.95;;
52274;SDS011;38228;50.940;4.024;2024-03-02T07:39:47;8.15;;;1.02;;
52274;SDS011;38228;50.940;4.024;2024-03-02T07:42:13;9.60;;;1.50;;
52274;SDS011;38228;50.940;4.024;2024-03-02T07:44:39;10.95;;;1.85;;
52274;SDS011;38228;50.940;4.024;2024-03-02T07:47:04;6.18;;;1.00;;
52274;SDS011;38228;50.940;4.024;2024-03-02T07:49:30;8.82;;;1.35;;
52274;SDS011;38228;50.940;4.024;2024-03-02T07:51:56;8.05;;;1.73;;
52274;SDS011;38228;50.940;4.024;2024-03-02T07:54:22;7.65;;;1.42;;
52274;SDS011;38228;50.940;4.024;2024-03-02T07:56:47;7.95;;;1.48;;
52274;SDS011;38228;50.940;4.024;2024-03-02T07:59:13;12.43;;;1.67;;
52274;SDS011;38228;50.940;4.024;2024-03-02T08:01:39;6.47;;;1.40;;
52274;SDS011;38228;50.940;4.024;2024-03-02T08:04:05;10.68;;;1.23;;
52274;SDS011;38228;50.940;4.024;2024-03-02T08:06:31;7.65;;;1.75;;
52274;SDS011;38228;50.940;4.024;2024-03-02T08:08:58;6.50;;;1.58;;
52274;SDS011;38228;50.940;4.024;2024-03-02T08:11:25;14.75;;;2.08;;
52274;SDS011;38228;50.940;4.024;2024-03-02T08:13:52;9.35;;;2.08;;
52274;SDS011;38228;50.940;4.024;2024-03-02T08:16:19;12.10;;;1.98;;
52274;SDS011;38228;50.940;4.024;2024-03-02T08:18:47;7.57;;;1.45;;
52274;SDS011;38228;50.940;4.024;2024-03-02T08:21:13;7.60;;;1.45;;
52274;SDS011;38228;50.940;4.024;2024-03-02T08:23:39;9.80;;;1.45;;
52274;SDS011;38228;50.940;4.024;2024-03-02T08:26:09;11.93;;;1.73;;
52274;SDS011;38228;50.940;4.024;2024-03-02T08:28:36;9.95;;;1.88;;
52274;SDS011;38228;50.940;4.024;2024-03-02T08:31:02;9.40;;;1.73;;
52274;SDS011;38228;50.940;4.024;2024-03-02T08:33:29;8.02;;;1.52;;
52274;SDS011;38228;50.940;4.024;2024-03-02T08:35:55;9.48;;;1.90;;
52274;SDS011;38228;50.940;4.024;2024-03-02T08:38:24;10.63;;;2.00;;
52274;SDS011;38228;50.940;4.024;2024-03-02T08:40:50;10.70;;;1.85;;
52274;SDS011;38228;50.940;4.024;2024-03-02T08:43:16;8.95;;;1.90;;
52274;SDS011;38228;50.940;4.024;2024-03-02T08:45:45;9.52;;;1.85;;
52274;SDS011;38228;50.940;4.024;2024-03-02T08:48:12;8.68;;;1.88;;
52274;SDS011;38228;50.940;4.024;2024-03-02T08:50:38;9.55;;;1.73;;
52274;SDS011;38228;50.940;4.024;2024-03-02T08:53:03;8.48;;;2.28;;
52274;SDS011;38228;50.940;4.024;2024-03-02T08:55:29;9.25;;;1.40;;
52274;SDS011;38228;50.940;4.024;2024-03-02T08:57:56;12.25;;;2.47;;
52274;SDS011;38228;50.940;4.024;2024-03-02T09:00:22;9.05;;;1.00;;
52274;SDS011;38228;50.940;4.024;2024-03-02T09:02:48;10.95;;;1.85;;
52274;SDS011;38228;50.940;4.024;2024-03-02T09:05:14;10.95;;;1.55;;
52274;SDS011;38228;50.940;4.024;2024-03-02T09:07:40;6.85;;;1.30;;
52274;SDS011;38228;50.940;4.024;2024-03-02T09:10:06;12.18;;;2.33;;
52274;SDS011;38228;50.940;4.024;2024-03-02T09:12:33;12.43;;;2.47;;
52274;SDS011;38228;50.940;4.024;2024-03-02T09:15:00;8.82;;;1.73;;
52274;SDS011;38228;50.940;4.024;2024-03-02T09:17:26;7.00;;;1.40;;
52274;SDS011;38228;50.940;4.024;2024-03-02T09:19:52;8.75;;;1.75;;
52274;SDS011;38228;50.940;4.024;2024-03-02T09:22:18;6.43;;;1.25;;
52274;SDS011;38228;50.940;4.024;2024-03-02T09:24:44;17.00;;;1.38;;
52274;SDS011;38228;50.940;4.024;2024-03-02T09:27:10;10.40;;;1.98;;
52274;SDS011;38228;50.940;4.024;2024-03-02T09:29:36;11.95;;;1.60;;
52274;SDS011;38228;50.940;4.024;2024-03-02T09:32:02;7.68;;;1.60;;
52274;SDS011;38228;50.940;4.024;2024-03-02T09:34:28;12.48;;;1.50;;
52274;SDS011;38228;50.940;4.024;2024-03-02T09:36:54;13.63;;;1.70;;
52274;SDS011;38228;50.940;4.024;2024-03-02T09:39:20;14.60;;;1.95;;
52274;SDS011;38228;50.940;4.024;2024-03-02T09:41:48;8.95;;;1.35;;
52274;SDS011;38228;50.940;4.024;2024-03-02T09:44:14;7.53;;;1.27;;
52274;SDS011;38228;50.940;4.024;2024-03-02T09:46:40;9.23;;;1.60;;
52274;SDS011;38228;50.940;4.024;2024-03-02T09:49:09;11.65;;;1.58;;
52274;SDS011;38228;50.940;4.024;2024-03-02T09:51:36;11.88;;;1.58;;
52274;SDS011;38228;50.940;4.024;2024-03-02T09:54:02;9.90;;;1.60;;
52274;SDS011;38228;50.940;4.024;2024-03-02T09:56:29;8.50;;;1.42;;
52274;SDS011;38228;50.940;4.024;2024-03-02T09:58:54;11.63;;;1.60;;
52274;SDS011;38228;50.940;4.024;2024-03-02T10:01:20;11.10;;;1.60;;
52274;SDS011;38228;50.940;4.024;2024-03-02T10:03:46;8.88;;;1.40;;
52274;SDS011;38228;50.940;4.024;2024-03-02T10:08:52;6.40;;;1.20;;
52274;SDS011;38228;50.940;4.024;2024-03-02T10:11:40;9.95;;;1.90;;
52274;SDS011;38228;50.940;4.024;2024-03-02T10:14:06;6.63;;;1.10;;
52274;SDS011;38228;50.940;4.024;2024-03-02T10:16:33;9.00;;;1.77;;
52274;SDS011;38228;50.940;4.024;2024-03-02T10:19:22;10.07;;;2.00;;
52274;SDS011;38228;50.940;4.024;2024-03-02T10:24:18;13.85;;;2.08;;
52274;SDS011;38228;50.940;4.024;2024-03-02T10:26:45;9.40;;;1.40;;
52274;SDS011;38228;50.940;4.024;2024-03-02T10:29:11;9.10;;;1.70;;
52274;SDS011;38228;50.940;4.024;2024-03-02T10:31:38;13.13;;;2.00;;
52274;SDS011;38228;50.940;4.024;2024-03-02T10:34:05;8.20;;;1.30;;
52274;SDS011;38228;50.940;4.024;2024-03-02T10:36:34;8.10;;;1.70;;
52274;SDS011;38228;50.940;4.024;2024-03-02T10:39:01;7.95;;;1.35;;
52274;SDS011;38228;50.940;4.024;2024-03-02T10:41:29;12.63;;;1.80;;
52274;SDS011;38228;50.940;4.024;2024-03-02T10:44:05;6.07;;;1.10;;
52274;SDS011;38228;50.940;4.024;2024-03-02T10:46:33;9.00;;;1.88;;
52274;SDS011;38228;50.940;4.024;2024-03-02T10:49:00;7.00;;;0.98;;
52274;SDS011;38228;50.940;4.024;2024-03-02T10:51:28;6.35;;;1.27;;
52274;SDS011;38228;50.940;4.024;2024-03-02T10:53:57;10.00;;;1.50;;
52274;SDS011;38228;50.940;4.024;2024-03-02T10:56:30;8.02;;;1.73;;
52274;SDS011;38228;50.940;4.024;2024-03-02T10:59:04;10.57;;;1.90;;
52274;SDS011;38228;50.940;4.024;2024-03-02T11:01:32;3.92;;;0.90;;
52274;SDS011;38228;50.940;4.024;2024-03-02T11:03:59;11.73;;;2.70;;
52274;SDS011;38228;50.940;4.024;2024-03-02T11:06:27;7.10;;;1.45;;
52274;SDS011;38228;50.940;4.024;2024-03-02T11:08:54;6.10;;;1.40;;
52274;SDS011;38228;50.940;4.024;2024-03-02T11:11:27;6.97;;;1.17;;
52274;SDS011;38228;50.940;4.024;2024-03-02T11:13:57;8.50;;;1.33;;
52274;SDS011;38228;50.940;4.024;2024-03-02T11:16:36;13.93;;;1.60;;
52274;SDS011;38228;50.940;4.024;2024-03-02T11:19:13;8.95;;;1.40;;
52274;SDS011;38228;50.940;4.024;2024-03-02T11:21:40;4.28;;;1.10;;
52274;SDS011;38228;50.940;4.024;2024-03-02T11:26:50;8.90;;;1.50;;
52274;SDS011;38228;50.940;4.024;2024-03-02T11:32:17;5.90;;;1.20;;
52274;SDS011;38228;50.940;4.024;2024-03-02T11:34:46;9.02;;;1.23;;
52274;SDS011;38228;50.940;4.024;2024-03-02T11:37:17;7.15;;;1.63;;
52274;SDS011;38228;50.940;4.024;2024-03-02T11:39:45;9.13;;;1.33;;
52274;SDS011;38228;50.940;4.024;2024-03-02T11:42:13;7.10;;;1.40;;
52274;SDS011;38228;50.940;4.024;2024-03-02T11:44:47;8.10;;;1.50;;
52274;SDS011;38228;50.940;4.024;2024-03-02T11:47:16;8.93;;;1.25;;
52274;SDS011;38228;50.940;4.024;2024-03-02T11:49:49;6.70;;;1.00;;
52274;SDS011;38228;50.940;4.024;2024-03-02T11:52:19;6.95;;;1.35;;
52274;SDS011;38228;50.940;4.024;2024-03-02T11:54:47;12.23;;;1.92;;
52274;SDS011;38228;50.940;4.024;2024-03-02T11:57:17;11.02;;;1.42;;
52274;SDS011;38228;50.940;4.024;2024-03-02T11:59:44;11.00;;;2.40;;
52274;SDS011;38228;50.940;4.024;2024-03-02T12:02:17;5.60;;;1.20;;
52274;SDS011;38228;50.940;4.024;2024-03-02T12:04:47;6.63;;;1.70;;
52274;SDS011;38228;50.940;4.024;2024-03-02T12:07:19;9.38;;;1.38;;
52274;SDS011;38228;50.940;4.024;2024-03-02T12:09:58;5.47;;;1.17;;
52274;SDS011;38228;50.940;4.024;2024-03-02T12:12:26;7.60;;;1.48;;
52274;SDS011;38228;50.940;4.024;2024-03-02T12:14:52;6.07;;;1.20;;
52274;SDS011;38228;50.940;4.024;2024-03-02T12:17:20;5.93;;;1.17;;
52274;SDS011;38228;50.940;4.024;2024-03-02T12:19:46;11.48;;;1.48;;
52274;SDS011;38228;50.940;4.024;2024-03-02T12:22:12;7.13;;;1.45;;
52274;SDS011;38228;50.940;4.024;2024-03-02T12:24:38;11.32;;;1.58;;
52274;SDS011;38228;50.940;4.024;2024-03-02T12:27:10;6.53;;;1.17;;
52274;SDS011;38228;50.940;4.024;2024-03-02T12:29:37;9.13;;;1.67;;
52274;SDS011;38228;50.940;4.024;2024-03-02T12:32:03;10.35;;;1.58;;
52274;SDS011;38228;50.940;4.024;2024-03-02T12:34:32;8.60;;;1.70;;
52274;SDS011;38228;50.940;4.024;2024-03-02T12:36:58;7.80;;;1.00;;
52274;SDS011;38228;50.940;4.024;2024-03-02T12:39:24;5.65;;;1.23;;
52274;SDS011;38228;50.940;4.024;2024-03-02T12:41:52;5.60;;;1.02;;
52274;SDS011;38228;50.940;4.024;2024-03-02T12:44:19;7.28;;;1.27;;
52274;SDS011;38228;50.940;4.024;2024-03-02T12:46:45;7.97;;;1.60;;
52274;SDS011;38228;50.940;4.024;2024-03-02T12:49:12;5.63;;;1.20;;
52274;SDS011;38228;50.940;4.024;2024-03-02T12:51:39;5.28;;;0.90;;
52274;SDS011;38228;50.940;4.024;2024-03-02T12:54:09;6.05;;;1.60;;
52274;SDS011;38228;50.940;4.024;2024-03-02T12:56:40;7.07;;;1.55;;
52274;SDS011;38228;50.940;4.024;2024-03-02T12:59:17;4.72;;;0.90;;
52274;SDS011;38228;50.940;4.024;2024-03-02T13:01:53;5.10;;;1.10;;
52274;SDS011;38228;50.940;4.024;2024-03-02T13:04:26;7.00;;;1.20;;
52274;SDS011;38228;50.940;4.024;2024-03-02T13:06:53;9.88;;;1.00;;
52274;SDS011;38228;50.940;4.024;2024-03-02T13:09:22;5.95;;;0.95;;
52274;SDS011;38228;50.940;4.024;2024-03-02T13:11:49;6.43;;;1.02;;
52274;SDS011;38228;50.940;4.024;2024-03-02T13:14:15;8.02;;;1.40;;
52274;SDS011;38228;50.940;4.024;2024-03-02T13:16:41;7.50;;;0.90;;
52274;SDS011;38228;50.940;4.024;2024-03-02T13:19:08;4.07;;;0.90;;
52274;SDS011;38228;50.940;4.024;2024-03-02T13:21:34;5.45;;;0.95;;
52274;SDS011;38228;50.940;4.024;2024-03-02T13:24:00;6.78;;;1.20;;
52274;SDS011;38228;50.940;4.024;2024-03-02T13:26:26;4.85;;;1.33;;
52274;SDS011;38228;50.940;4.024;2024-03-02T13:28:52;7.40;;;1.13;;
52274;SDS011;38228;50.940;4.024;2024-03-02T13:31:18;7.70;;;1.30;;
52274;SDS011;38228;50.940;4.024;2024-03-02T13:33:44;6.07;;;1.27;;
52274;SDS011;38228;50.940;4.024;2024-03-02T13:36:10;4.15;;;1.00;;
52274;SDS011;38228;50.940;4.024;2024-03-02T13:38:36;4.07;;;1.15;;
52274;SDS011;38228;50.940;4.024;2024-03-02T13:41:01;4.75;;;0.90;;
52274;SDS011;38228;50.940;4.024;2024-03-02T13:43:30;8.18;;;1.00;;
52274;SDS011;38228;50.940;4.024;2024-03-02T13:45:57;4.72;;;1.00;;
52274;SDS011;38228;50.940;4.024;2024-03-02T13:48:24;7.85;;;1.20;;
52274;SDS011;38228;50.940;4.024;2024-03-02T13:50:53;4.45;;;1.30;;
52274;SDS011;38228;50.940;4.024;2024-03-02T13:53:19;3.60;;;0.93;;
52274;SDS011;38228;50.940;4.024;2024-03-02T13:55:45;5.95;;;1.00;;
52274;SDS011;38228;50.940;4.024;2024-03-02T13:58:10;8.25;;;1.25;;
52274;SDS011;38228;50.940;4.024;2024-03-02T14:00:37;6.43;;;1.08;;
52274;SDS011;38228;50.940;4.024;2024-03-02T14:03:04;3.83;;;1.02;;
52274;SDS011;38228;50.940;4.024;2024-03-02T14:05:32;4.30;;;0.98;;
52274;SDS011;38228;50.940;4.024;2024-03-02T14:07:59;4.63;;;1.10;;
52274;SDS011;38228;50.940;4.024;2024-03-02T14:10:25;4.20;;;1.10;;
52274;SDS011;38228;50.940;4.024;2024-03-02T14:12:52;3.92;;;0.90;;
52274;SDS011;38228;50.940;4.024;2024-03-02T14:15:23;3.40;;;0.90;;
52274;SDS011;38228;50.940;4.024;2024-03-02T14:17:49;6.30;;;1.13;;
52274;SDS011;38228;50.940;4.024;2024-03-02T14:20:15;6.28;;;1.10;;
52274;SDS011;38228;50.940;4.024;2024-03-02T14:22:46;5.40;;;1.35;;
52274;SDS011;38228;50.940;4.024;2024-03-02T14:25:13;5.50;;;1.08;;
52274;SDS011;38228;50.940;4.024;2024-03-02T14:27:38;3.67;;;1.30;;
52274;SDS011;38228;50.940;4.024;2024-03-02T14:30:05;5.18;;;1.00;;
52274;SDS011;38228;50.940;4.024;2024-03-02T14:32:32;5.22;;;1.00;;
52274;SDS011;38228;50.940;4.024;2024-03-02T14:34:57;4.57;;;1.00;;
52274;SDS011;38228;50.940;4.024;2024-03-02T14:37:23;6.18;;;1.00;;
52274;SDS011;38228;50.940;4.024;2024-03-02T14:39:49;4.22;;;1.05;;
52274;SDS011;38228;50.940;4.024;2024-03-02T14:42:15;2.83;;;0.70;;
52274;SDS011;38228;50.940;4.024;2024-03-02T14:44:41;3.92;;;1.08;;
52274;SDS011;38228;50.940;4.024;2024-03-02T14:47:07;2.88;;;0.95;;
52274;SDS011;38228;50.940;4.024;2024-03-02T14:49:33;4.75;;;1.20;;
52274;SDS011;38228;50.940;4.024;2024-03-02T14:52:02;5.65;;;0.93;;
52274;SDS011;38228;50.940;4.024;2024-03-02T14:54:27;5.93;;;1.05;;
52274;SDS011;38228;50.940;4.024;2024-03-02T14:56:54;4.15;;;1.20;;
52274;SDS011;38228;50.940;4.024;2024-03-02T14:59:21;2.17;;;0.77;;
52274;SDS011;38228;50.940;4.024;2024-03-02T15:01:47;3.28;;;0.85;;